Terminal Aerodrome Forecast
Issued by NWS

Home | Current Version | Previous Version | Text Only | Print | Product List | Glossary On
Versions: 1 2 3 4 5 6 7 8 9 10 11 12 13 14 15 16 17 18
489
FTUS41 KCAR 221120
TAFPQI
TAF
KPQI 221120Z 2212/2312 19006KT P6SM SCT110 BKN250
     FM222000 18005KT P6SM VCSH BKN050
     FM230000 19010G18KT 5SM SHRA BR VCTS OVC035CB
     FM230500 17010KT 2SM -SHRA BR OVC008=

USA.gov is the U.S. government's official web portal to all federal, state and local government web resources and services.